Arlington, VA

7:39 PM EST on December 25, 2014 (GMT -0500)
KVAARLIN22 | Change Station
CLOSE
Current Station
Personal Weather Station
Location: Arlington, VA
Elevation: 344 ft
Nearby Weather Stations

Elev 344 ft 38.91 °N, 77.14 °W | Updated 8 seconds ago

Clear
Clear
45.1 °F
Feels Like 45 °F
N
2.0
Wind Variable Wind from NW
Gusts 6.0 mph

Today
High -- | Low -- °F
--% Chance of Precip.
Yesterday
High -- | Low -- °F
Precip. -- in
7:25 AM 4:51 PM
Waxing Crescent, 20% visible
Pressure 30.15 in
Visibility 10.0 miles
Clouds Clear
Windchill 45 °F
Dew Point 34 °F
Humidity 64%
Rainfall 0.07 in
Snow Depth Not available.
UV 0 out of 12
Pollen .10 out of 12
Air Quality Not available.
Flu Activity Not available.
METAR KDCA 252352Z 33011KT 10SM CLR 09/M01 A3015 RMK AO2 SLP210 T00941011 10144 20094 53029

More Conditions Fewer Conditions

Pressure 30.15 in
Visibility 10.0 miles
Clouds Clear
Windchill 45 °F
Dew Point 34 °F
Humidity 64%
Rainfall 0.07 in
Snow Depth Not available.
UV 0 out of 12
Pollen .10 out of 12
Air Quality Not available.
Flu Activity Not available.
METAR KDCA 252352Z 33011KT 10SM CLR 09/M01 A3015 RMK AO2 SLP210 T00941011 10144 20094 53029

More Conditions Fewer Conditions

10-Day Weather Forecast

Almanac

Astronomy

Dec. 25, 2014 Rise Set
Actual Time
Civil Twilight
Nautical Twilight
Astronomical Twilight
Moon
Length of Visible Light
Length of Day
Tomorrow will be .
, % of the Moon is Illuminated

Today's Extremes

State Highs State Lows

Community

WunderPhotos

Upload Photos

1,780,479 photos uploaded!

WunderBlogs® & News

Nearby

Air Quality

  Air Quality AQ Index Pollutant
Not available.

Snow Depth

Station Depth Elevation

Earthquake Activity

City Distance Mag. Time & Date
Minimum magnitude displayed is 2.5.

Coastal Water Temperatures

Place Temperature

Nearby Weather Stations